Time;durP1;ratioP1;P1;durP2;ratioP2;P2;SDS_P1;SDS_P2;PMS_P1;PMS_P2;Temp;Humidity;BMP_temperature;BMP_pressure;BME280_temperature;BME280_humidity;BME280_pressure;Samples;Min_cycle;Max_cycle;Signal;HPM_P1;HPM_P2
2022/08/01 00:01:27;;;;;;;;;;;;;;;15.50;85.56;98539.73;1316414;89;81783;-71
2022/08/01 00:03:30;;;;;;;9.45;8.70;;;;;;;15.54;85.55;98542.19;1315671;89;20173;-71
2022/08/01 00:05:34;;;;;;;12.80;8.55;;;;;;;15.52;85.58;98545.42;1313552;89;81478;-71
2022/08/01 00:07:36;;;;;;;9.43;8.68;;;;;;;15.52;85.53;98540.11;1313937;90;21027;-71
2022/08/01 00:09:37;;;;;;;11.57;9.30;;;;;;;15.46;85.71;98527.66;1313813;89;21593;-71
2022/08/01 00:11:38;;;;;;;;;;;;;;;15.51;85.53;98535.30;1314217;89;82245;-71
2022/08/01 00:13:39;;;;;;;14.70;9.78;;;;;;;15.50;85.52;98533.09;1316191;88;20488;-71
2022/08/01 00:15:39;;;;;;;;;;;;;;;15.49;85.56;98534.09;1314308;89;82353;-71
2022/08/01 00:17:41;;;;;;;15.10;10.03;;;;;;;15.47;85.54;98525.38;1315930;89;20436;-71
2022/08/01 00:19:43;;;;;;;11.90;9.68;;;;;;;15.46;85.55;98534.30;1312099;90;82037;-71
2022/08/01 00:21:44;;;;;;;17.40;10.05;;;;;;;15.45;85.51;98528.64;1313992;90;21103;-71
2022/08/01 00:23:45;;;;;;;12.00;10.13;;;;;;;15.45;85.51;98532.63;1313446;89;21103;-70
2022/08/01 00:25:46;;;;;;;;;;;;;;;15.44;85.53;98527.44;1315078;89;81039;-71
2022/08/01 00:27:46;;;;;;;13.35;11.38;;;;;;;15.42;85.50;98534.16;1316172;88;20230;-72
2022/08/01 00:29:47;;;;;;;16.62;10.48;;;;;;;15.41;85.52;98530.30;1312268;90;81256;-71
2022/08/01 00:31:48;;;;;;;;;;;;;;;15.40;85.50;98533.45;1316932;89;21226;-71
2022/08/01 00:33:49;;;;;;;11.08;9.95;;;;;;;15.40;85.53;98537.43;1314460;89;20198;-71
2022/08/01 00:35:50;;;;;;;;;;;;;;;15.39;85.58;98531.74;1312103;89;81005;-71
2022/08/01 00:37:51;;;;;;;17.10;10.27;;;;;;;15.39;85.55;98534.39;1311756;89;20118;-72
2022/08/01 00:39:52;;;;;;;17.50;10.32;;;;;;;15.38;85.55;98532.73;1317764;88;81249;-72
2022/08/01 00:41:53;;;;;;;;;;;;;;;15.38;85.53;98537.17;1337932;89;21098;-71
2022/08/01 00:43:54;;;;;;;22.07;10.60;;;;;;;15.33;85.66;98536.20;1331315;88;20153;-71
2022/08/01 00:45:55;;;;;;;11.73;10.10;;;;;;;15.33;85.66;98536.20;1328143;88;81049;-71
2022/08/01 00:47:56;;;;;;;;;;;;;;;15.32;85.54;98534.50;1357818;87;21074;-70
2022/08/01 00:49:57;;;;;;;11.60;10.35;;;;;;;15.32;85.53;98535.83;1326818;87;67582;-71
2022/08/01 00:51:59;;;;;;;23.87;10.32;;;;;;;15.29;85.53;98536.06;1340432;87;22293;-72
2022/08/01 00:54:00;;;;;;;15.10;10.32;;;;;;;15.28;85.53;98539.67;1319920;89;21565;-71
2022/08/01 00:56:01;;;;;;;21.33;10.18;;;;;;;15.26;85.52;98536.30;1353350;87;81839;-70
2022/08/01 00:58:02;;;;;;;12.93;10.63;;;;;;;15.23;85.50;98532.06;1335657;87;21098;-71
2022/08/01 01:00:04;;;;;;;;;;;;;;;15.22;85.51;98533.51;1336415;87;81779;-70
2022/08/01 01:02:06;;;;;;;12.93;10.85;;;;;;;15.20;85.52;98528.78;1330728;89;20193;-71
2022/08/01 01:04:07;;;;;;;12.58;10.85;;;;;;;15.18;85.53;98539.52;1307747;89;21095;-71
2022/08/01 01:06:10;;;;;;;;;;;;;;;15.14;85.51;98526.94;1340249;87;81162;-71
2022/08/01 01:08:14;;;;;;;14.93;10.78;;;;;;;15.14;85.52;98530.92;1331073;89;20173;-71
2022/08/01 01:10:34;;;;;;;14.53;10.80;;;;;;;15.12;85.56;98528.88;1335617;87;81195;-71
2022/08/01 01:12:39;;;;;;;12.20;10.95;;;;;;;15.12;85.55;98534.67;1336799;87;21568;-72
2022/08/01 01:14:46;;;;;;;14.15;10.45;;;;;;;15.10;85.56;98533.44;1336897;87;21682;-70
2022/08/01 01:16:47;;;;;;;16.10;11.03;;;;;;;15.09;85.55;98533.09;1336539;89;21086;-71
2022/08/01 01:18:54;;;;;;;16.30;10.93;;;;;;;15.09;85.63;98541.05;1336482;87;21078;-71
2022/08/01 01:21:10;;;;;;;18.75;11.08;;;;;;;15.09;85.63;98541.05;1334771;87;82229;-71
2022/08/01 01:23:30;;;;;;;17.45;11.60;;;;;;;15.09;85.59;98545.50;1336953;89;21111;-71
2022/08/01 01:25:41;;;;;;;14.30;12.15;;;;;;;15.07;85.57;98545.61;1334974;88;82454;-72
2022/08/01 01:28:01;;;;;;;17.32;11.97;;;;;;;15.08;85.62;98551.30;1336048;87;21179;-72
2022/08/01 01:30:03;;;;;;;24.37;11.80;;;;;;;15.08;85.56;98549.13;1334021;88;81411;-71
2022/08/01 01:32:08;;;;;;;20.92;12.37;;;;;;;15.07;85.62;98550.92;1336909;88;21047;-71
2022/08/01 01:34:12;;;;;;;18.30;12.50;;;;;;;15.07;85.62;98548.27;1336957;87;21059;-71
2022/08/01 01:36:16;;;;;;;23.35;12.63;;;;;;;15.08;85.61;98547.80;1333972;87;81130;-71
2022/08/01 01:38:27;;;;;;;14.07;11.85;;;;;;;15.08;85.63;98551.30;1336287;88;21071;-71
2022/08/01 01:40:30;;;;;;;16.57;12.13;;;;;;;15.08;85.63;98546.48;1337245;87;81969;-71
2022/08/01 01:42:33;;;;;;;13.55;11.43;;;;;;;15.08;85.62;98552.63;1355159;86;21562;-70
2022/08/01 01:44:37;;;;;;;14.07;11.43;;;;;;;15.08;85.62;98549.97;1335878;89;21047;-71
2022/08/01 01:46:40;;;;;;;16.60;11.90;;;;;;;15.08;85.63;98551.30;1335391;87;81684;-71
2022/08/01 01:48:44;;;;;;;14.65;11.63;;;;;;;15.04;85.44;98545.84;1335762;88;21058;-71
2022/08/01 01:50:47;;;;;;;15.13;11.53;;;;;;;15.09;85.63;98551.67;1334708;87;81878;-71
2022/08/01 01:52:49;;;;;;;18.15;10.75;;;;;;;15.08;85.65;98551.30;1336644;89;21058;-69
2022/08/01 01:54:52;;;;;;;11.65;10.43;;;;;;;15.10;85.64;98552.51;1333851;87;82113;-71
2022/08/01 01:56:56;;;;;;;12.20;10.90;;;;;;;15.10;85.65;98555.99;1336730;87;21057;-71
2022/08/01 01:59:00;;;;;;;15.18;10.53;;;;;;;15.12;85.65;98549.27;1336398;88;21059;-71
2022/08/01 02:01:03;;;;;;;16.10;11.38;;;;;;;15.11;85.66;98551.55;1334941;87;81146;-70
2022/08/01 02:03:07;;;;;;;13.72;11.48;;;;;;;15.12;85.66;98550.60;1336100;89;21163;-71
2022/08/01 02:05:11;;;;;;;17.00;11.57;;;;;;;15.12;85.66;98552.77;1334632;87;82101;-71
2022/08/01 02:07:15;;;;;;;20.82;11.95;;;;;;;15.13;85.67;98541.66;1336459;87;21115;-71
2022/08/01 02:09:19;;;;;;;14.65;11.83;;;;;;;15.13;85.67;98541.66;1335282;89;21074;-70
2022/08/01 02:11:23;;;;;;;18.37;12.88;;;;;;;15.12;85.54;98539.98;1333855;89;81229;-71
2022/08/01 02:13:25;;;;;;;14.10;12.35;;;;;;;15.12;85.54;98539.98;1336649;88;21034;-72
2022/08/01 02:15:29;;;;;;;13.98;12.25;;;;;;;15.12;85.52;98539.98;1336197;87;82440;-70
2022/08/01 02:17:32;;;;;;;19.65;12.58;;;;;;;15.12;85.52;98539.98;1355034;86;21115;-71
2022/08/01 02:19:34;;;;;;;23.90;13.65;;;;;;;15.11;85.66;98543.09;1354687;87;21062;-71
2022/08/01 02:21:47;;;;;;;15.40;12.68;;;;;;;15.12;85.63;98540.82;1334551;87;82075;-71
2022/08/01 02:23:50;;;;;;;19.30;11.68;;;;;;;15.12;85.63;98540.82;1336072;88;21094;-71
2022/08/01 02:25:55;;;;;;;14.70;12.45;;;;;;;15.10;85.63;98542.72;1334882;87;81095;-71
2022/08/01 02:28:13;;;;;;;18.57;11.73;;;;;;;15.07;85.61;98540.30;1335604;89;21036;-71
2022/08/01 02:30:15;;;;;;;15.32;13.05;;;;;;;15.01;85.76;98531.94;1334371;87;81149;-71
2022/08/01 02:32:22;;;;;;;20.02;13.32;;;;;;;15.01;85.76;98531.94;1336498;88;21071;-71
2022/08/01 02:34:25;;;;;;;13.88;12.55;;;;;;;15.01;85.56;98536.79;1336298;88;21095;-71
2022/08/01 02:36:30;;;;;;;14.68;13.20;;;;;;;15.01;85.56;98536.79;1334358;87;81122;-70
2022/08/01 02:38:34;;;;;;;21.20;14.03;;;;;;;14.92;85.55;98534.80;1336161;87;22254;-70
2022/08/01 02:40:39;;;;;;;17.62;14.00;;;;;;;14.92;85.55;98534.80;1333967;88;81843;-71
2022/08/01 02:42:43;;;;;;;27.73;14.68;;;;;;;14.94;85.55;98542.19;1334955;88;22096;-71
2022/08/01 02:44:47;;;;;;;25.60;15.40;;;;;;;14.92;85.55;98546.74;1328866;88;81159;-70
2022/08/01 02:46:55;;;;;;;26.55;15.18;;;;;;;14.90;85.55;98546.02;1330770;87;21012;-71
2022/08/01 02:49:00;;;;;;;23.67;16.00;;;;;;;14.87;85.57;98549.75;1330093;88;21036;-71
2022/08/01 02:51:02;;;;;;;19.48;15.30;;;;;;;14.85;85.55;98548.16;1328786;88;81153;-71
2022/08/01 02:53:06;;;;;;;25.10;16.45;;;;;;;14.84;85.56;98555.73;1330832;89;21557;-70
2022/08/01 02:55:09;;;;;;;29.55;16.45;;;;;;;14.83;85.57;98555.36;1328220;88;81075;-72
2022/08/01 02:57:11;;;;;;;23.02;17.10;;;;;;;14.77;85.56;98549.56;1330787;88;21059;-71
2022/08/01 02:59:15;;;;;;;20.95;15.53;;;;;;;14.77;85.58;98554.88;1331229;89;21091;-70
2022/08/01 03:01:19;;;;;;;25.37;17.23;;;;;;;14.74;85.55;98555.07;1328210;87;81693;-71
2022/08/01 03:03:21;;;;;;;28.47;16.55;;;;;;;14.67;85.58;98556.48;1330485;88;21021;-71
2022/08/01 03:05:24;;;;;;;25.95;17.85;;;;;;;14.63;85.44;98561.63;1329121;88;81747;-70
2022/08/01 03:07:26;;;;;;;27.67;18.77;;;;;;;14.63;85.44;98561.63;1330592;87;21082;-71
2022/08/01 03:09:29;;;;;;;25.20;18.85;;;;;;;14.65;85.56;98563.72;1330664;89;21635;-71
2022/08/01 03:11:34;;;;;;;33.65;19.17;;;;;;;14.63;85.55;98564.28;1302272;90;81317;-71
2022/08/01 03:13:36;;;;;;;35.78;20.45;;;;;;;14.61;85.59;98568.84;1311970;89;21289;-70
2022/08/01 03:15:41;;;;;;;26.33;19.45;;;;;;;14.60;85.58;98563.98;1312204;89;81957;-70
2022/08/01 03:17:44;;;;;;;35.60;20.08;;;;;;;14.59;85.61;98564.10;1309123;89;22378;-71
2022/08/01 03:19:46;;;;;;;25.40;19.73;;;;;;;14.58;85.59;98567.70;1322176;88;81194;-70
2022/08/01 03:21:49;;;;;;;33.98;19.55;;;;;;;14.52;85.60;98555.73;1335901;87;21597;-70
2022/08/01 03:23:56;;;;;;;23.77;19.75;;;;;;;14.58;85.62;98566.38;1330749;87;22586;-71
2022/08/01 03:25:54;;;;;;;32.98;19.87;;;;;;;14.57;85.61;98567.36;1329207;87;82025;-71
2022/08/01 03:27:59;;;;;;;24.02;19.02;;;;;;;14.56;85.60;98565.66;1330697;87;21958;-71
2022/08/01 03:30:03;;;;;;;33.45;20.70;;;;;;;14.55;85.62;98563.95;1328791;88;87266;-71
2022/08/01 03:32:06;;;;;;;30.15;20.23;;;;;;;14.55;85.61;98566.14;1330725;89;21075;-70
2022/08/01 03:34:07;;;;;;;25.55;19.87;;;;;;;14.54;85.62;98563.58;1323391;88;21063;-71
2022/08/01 03:36:10;;;;;;;39.08;23.00;;;;;;;14.54;85.59;98567.55;1322690;88;81055;-71
2022/08/01 03:38:15;;;;;;;34.95;23.32;;;;;;;14.52;85.61;98559.71;1323907;88;21301;-70
2022/08/01 03:40:26;;;;;;;41.05;23.60;;;;;;;14.52;85.61;98568.16;1341798;87;81753;-70
2022/08/01 03:42:33;;;;;;;35.00;23.30;;;;;;;14.50;85.62;98568.76;1335549;89;22396;-70
2022/08/01 03:44:38;;;;;;;32.28;22.65;;;;;;;14.48;85.61;98565.73;1336194;88;21087;-70
2022/08/01 03:46:45;;;;;;;33.10;23.00;;;;;;;14.44;85.60;98569.55;1333563;87;81057;-71
2022/08/01 03:48:48;;;;;;;35.92;22.95;;;;;;;14.44;85.58;98569.55;1308576;90;21218;-70
2022/08/01 03:50:52;;;;;;;34.40;23.67;;;;;;;14.41;85.71;98576.41;1306692;89;81177;-70
2022/08/01 03:52:56;;;;;;;40.55;22.93;;;;;;;14.41;85.71;98576.41;1304489;91;21224;-70
2022/08/01 03:55:00;;;;;;;35.73;22.65;;;;;;;14.34;85.66;98575.12;1332679;88;81330;-70
2022/08/01 03:57:02;;;;;;;32.88;22.55;;;;;;;14.34;85.66;98575.12;1336103;87;21043;-70
2022/08/01 03:59:04;;;;;;;28.65;22.07;;;;;;;14.37;85.58;98583.34;1336242;89;21047;-70
2022/08/01 04:01:06;;;;;;;44.73;24.37;;;;;;;14.37;85.59;98584.66;1334116;88;81868;-70
2022/08/01 04:03:08;;;;;;;42.35;24.05;;;;;;;14.36;85.62;98586.48;1309013;89;21106;-70
2022/08/01 04:05:10;;;;;;;36.08;23.60;;;;;;;14.35;85.63;98586.10;1307421;90;81089;-70
2022/08/01 04:07:25;;;;;;;32.48;23.60;;;;;;;14.35;85.64;98584.77;1304732;90;21619;-70
2022/08/01 04:09:26;;;;;;;43.58;23.73;;;;;;;14.35;85.65;98583.94;1335634;88;21103;-70
2022/08/01 04:11:28;;;;;;;42.08;25.32;;;;;;;14.01;85.58;98535.92;1286589;92;81034;-70
2022/08/01 04:13:30;;;;;;;35.92;25.08;;;;;;;14.35;85.68;98590.56;1304646;90;21122;-70
2022/08/01 04:15:31;;;;;;;34.92;23.25;;;;;;;14.35;85.70;98594.05;1334214;87;81006;-70
2022/08/01 04:17:32;;;;;;;29.07;22.62;;;;;;;14.36;85.70;98598.41;1336679;88;21003;-70
2022/08/01 04:19:33;;;;;;;32.38;24.05;;;;;;;14.38;85.75;98595.16;1335406;88;21055;-70
2022/08/01 04:21:35;;;;;;;37.48;25.17;;;;;;;14.38;85.72;98600.46;1307245;89;81260;-70
2022/08/01 04:23:40;;;;;;;34.15;22.40;;;;;;;14.40;85.76;98597.70;1308979;89;22490;-70
2022/08/01 04:25:42;;;;;;;30.00;22.13;;;;;;;14.42;85.80;98599.29;1307503;89;81952;-70
2022/08/01 04:27:47;;;;;;;26.87;21.52;;;;;;;14.43;85.77;98597.02;1303499;91;21024;-69
2022/08/01 04:29:51;;;;;;;28.35;20.85;;;;;;;14.44;85.77;98595.20;1333760;87;82115;-70
2022/08/01 04:31:54;;;;;;;31.57;21.30;;;;;;;14.45;85.78;98592.47;1336333;89;21183;-70
2022/08/01 04:33:57;;;;;;;26.75;20.70;;;;;;;14.45;85.76;98595.12;1335862;87;21097;-70
2022/08/01 04:36:01;;;;;;;33.33;22.70;;;;;;;14.44;85.76;98596.07;1306103;89;81845;-69
2022/08/01 04:38:04;;;;;;;34.15;22.67;;;;;;;14.44;85.75;98586.79;1308709;90;22378;-69
2022/08/01 04:40:08;;;;;;;27.87;22.30;;;;;;;14.45;85.75;98596.45;1302528;90;81925;-69
2022/08/01 04:42:11;;;;;;;35.80;23.95;;;;;;;14.46;85.76;98602.09;1334764;89;21059;-70
2022/08/01 04:44:13;;;;;;;35.83;23.87;;;;;;;14.46;85.78;98595.47;1345733;87;21090;-70
2022/08/01 04:46:17;;;;;;;38.60;22.95;;;;;;;14.48;85.79;98600.66;1351732;87;81210;-69
2022/08/01 04:48:21;;;;;;;36.10;21.37;;;;;;;14.47;85.79;98595.84;1354438;87;21082;-69
2022/08/01 04:50:22;;;;;;;43.25;22.45;;;;;;;14.44;85.76;98589.90;1352769;87;82132;-69
2022/08/01 04:52:27;;;;;;;39.70;22.27;;;;;;;14.47;85.76;98601.16;1335356;88;21039;-70
2022/08/01 04:54:32;;;;;;;32.48;21.42;;;;;;;14.46;85.75;98599.94;1335672;88;21071;-70
2022/08/01 04:56:33;;;;;;;36.20;22.42;;;;;;;14.44;85.72;98599.18;1334660;88;81264;-71
2022/08/01 04:58:35;;;;;;;31.45;22.22;;;;;;;14.43;85.70;98601.48;1336231;88;21107;-70
2022/08/01 05:00:36;;;;;;;;;;;;;;;14.41;85.69;98599.41;1336621;88;81136;-69
2022/08/01 05:02:37;;;;;;;32.42;22.55;;;;;;;14.39;85.71;98598.19;1330412;87;20185;-70
2022/08/01 05:04:40;;;;;;;29.70;22.17;;;;;;;14.37;85.73;98594.81;1307015;90;21078;-69
2022/08/01 05:06:41;;;;;;;41.20;23.75;;;;;;;14.37;85.74;98597.46;1335845;87;81714;-69
2022/08/01 05:08:41;;;;;;;34.95;23.55;;;;;;;14.35;85.75;98598.03;1331415;87;21062;-70
2022/08/01 05:10:42;;;;;;;38.83;23.80;;;;;;;14.37;85.80;98597.46;1329533;87;82095;-70
2022/08/01 05:12:43;;;;;;;39.83;24.60;;;;;;;14.38;85.80;98604.44;1330379;88;21047;-70
2022/08/01 05:14:45;;;;;;;46.58;27.45;;;;;;;14.41;85.85;98600.27;1329302;88;82206;-70
2022/08/01 05:16:46;;;;;;;42.53;26.48;;;;;;;14.44;85.86;98601.83;1332755;88;21078;-70
2022/08/01 05:18:47;;;;;;;44.98;26.17;;;;;;;14.46;85.86;98596.80;1331247;88;21027;-70
2022/08/01 05:20:48;;;;;;;45.50;27.27;;;;;;;14.50;85.85;98600.58;1328095;88;81959;-70
2022/08/01 05:22:49;;;;;;;47.98;27.15;;;;;;;14.53;85.88;98601.69;1354584;87;21328;-70
2022/08/01 05:24:50;;;;;;;42.05;26.15;;;;;;;14.57;85.90;98597.86;1334197;88;81932;-70
2022/08/01 05:26:51;;;;;;;;;;;;;;;14.61;85.89;98604.64;1338838;89;20991;-70
2022/08/01 05:28:52;;;;;;;37.42;24.02;;;;;;;14.63;85.85;98600.09;1336971;88;20143;-70
2022/08/01 05:30:54;;;;;;;39.67;25.15;;;;;;;14.66;85.88;98603.02;1333823;87;81799;-70
2022/08/01 05:32:55;;;;;;;35.65;24.05;;;;;;;14.70;85.84;98602.67;1336719;89;21031;-70
2022/08/01 05:34:56;;;;;;;33.33;24.10;;;;;;;14.74;85.83;98601.49;1334787;87;81348;-70
2022/08/01 05:36:57;;;;;;;38.13;24.43;;;;;;;14.78;85.82;98602.97;1336403;88;21034;-69
2022/08/01 05:38:58;;;;;;;32.60;22.70;;;;;;;14.83;85.81;98601.80;1336327;89;21095;-69
2022/08/01 05:40:59;;;;;;;34.13;22.17;;;;;;;14.87;85.78;98610.77;1334125;87;81119;-69
2022/08/01 05:43:00;;;;;;;37.90;23.75;;;;;;;14.91;85.72;98600.77;1336583;88;21059;-69
2022/08/01 05:45:01;;;;;;;;;;;;;;;14.95;85.73;98603.11;1330214;88;82555;-70
2022/08/01 05:47:02;;;;;;;35.13;22.62;;;;;;;15.00;85.72;98602.77;1309160;90;20238;-70
2022/08/01 05:49:04;;;;;;;43.00;24.70;;;;;;;15.02;85.73;98599.50;1305687;90;22365;-70
2022/08/01 05:51:05;;;;;;;42.13;24.37;;;;;;;15.14;85.70;98601.76;1306452;89;82274;-70
2022/08/01 05:53:07;;;;;;;36.83;25.40;;;;;;;15.20;85.69;98596.48;1307256;89;21634;-70
2022/08/01 05:55:09;;;;;;;;;;;;;;;15.20;85.69;98596.48;1307403;89;82313;-70
2022/08/01 05:57:10;;;;;;;44.00;22.17;;;;;;;15.30;85.65;98602.82;1309043;89;20142;-70
2022/08/01 05:59:10;;;;;;;;;;;;;;;15.30;85.65;98602.82;1309315;90;21124;-70
2022/08/01 06:01:12;;;;;;;40.65;20.97;;;;;;;15.37;85.66;98608.04;1307653;89;67635;-70
2022/08/01 06:03:14;;;;;;;37.35;21.87;;;;;;;15.41;85.64;98602.86;1306317;90;21094;-70
2022/08/01 06:05:15;;;;;;;40.00;21.57;;;;;;;15.46;85.57;98605.17;1305156;89;81197;-70
2022/08/01 06:07:16;;;;;;;34.63;22.27;;;;;;;15.50;85.54;98607.47;1309187;89;21078;-71
2022/08/01 06:09:17;;;;;;;;;;;;;;;15.52;85.52;98590.58;1312554;89;21078;-70
2022/08/01 06:11:18;;;;;;;30.05;19.20;;;;;;;15.62;85.55;98604.39;1307890;89;67242;-69
2022/08/01 06:13:20;;;;;;;35.92;20.00;;;;;;;15.68;85.48;98600.92;1306194;89;21174;-69
2022/08/01 06:15:20;;;;;;;;;;;;;;;15.74;85.46;98601.77;1306909;89;82204;-69
2022/08/01 06:17:21;;;;;;;24.37;15.40;;;;;;;15.81;85.49;98606.55;1308994;90;20167;-69
2022/08/01 06:19:22;;;;;;;35.73;16.97;;;;;;;15.88;85.45;98606.06;1305937;90;21123;-69
2022/08/01 06:21:23;;;;;;;;;;;;;;;15.93;85.38;98604.75;1305571;90;82241;-69
2022/08/01 06:23:24;;;;;;;24.25;15.23;;;;;;;15.99;85.35;98611.41;1308667;89;20154;-69
2022/08/01 06:25:25;;;;;;;;;;;;;;;16.04;85.30;98607.92;1305960;89;81440;-69
2022/08/01 06:27:25;;;;;;;24.92;16.00;;;;;;;16.10;85.31;98603.47;1308077;89;20193;-69
2022/08/01 06:29:26;;;;;;;;;;;;;;;16.19;85.33;98605.06;1308717;89;21070;-69
2022/08/01 06:31:27;;;;;;;18.37;13.13;;;;;;;16.26;85.29;98607.60;1304698;89;67409;-69
2022/08/01 06:33:28;;;;;;;16.20;11.43;;;;;;;16.34;85.29;98618.00;1303900;89;21564;-69
2022/08/01 06:35:29;;;;;;;;;;;;;;;16.43;85.23;98613.76;1307079;89;81312;-69
2022/08/01 06:37:31;;;;;;;14.25;10.13;;;;;;;16.52;85.18;98613.54;1309431;89;20804;-69
2022/08/01 06:39:32;;;;;;;14.78;11.55;;;;;;;16.59;84.99;98616.57;1304908;89;21114;-70
2022/08/01 06:41:33;;;;;;;;;;;;;;;16.65;84.93;98617.41;1306066;89;81310;-69
2022/08/01 06:43:34;;;;;;;13.18;9.18;;;;;;;16.72;84.96;98625.25;1325606;88;20163;-70
2022/08/01 06:45:36;;;;;;;;;;;;;;;16.79;84.91;98626.95;1327744;88;82098;-69
2022/08/01 06:47:42;;;;;;;25.57;10.88;;;;;;;16.85;84.77;98625.15;1309103;89;20150;-69
2022/08/01 06:49:43;;;;;;;18.75;10.23;;;;;;;16.91;84.76;98625.17;1306165;89;21083;-69
2022/08/01 06:51:43;;;;;;;;;;;;;;;16.98;84.66;98628.53;1307525;90;81833;-69
2022/08/01 06:53:44;;;;;;;20.80;9.88;;;;;;;17.05;84.64;98628.05;1308687;90;20258;-70
2022/08/01 06:55:45;;;;;;;12.13;8.63;;;;;;;17.09;84.60;98628.17;1303162;89;81838;-69
2022/08/01 06:57:47;;;;;;;;;;;;;;;17.17;84.57;98626.56;1308214;89;21051;-70
2022/08/01 06:59:48;;;;;;;17.37;8.38;;;;;;;17.25;84.50;98623.29;1304746;89;67403;-69
2022/08/01 07:01:49;;;;;;;10.70;8.58;;;;;;;17.30;84.51;98621.57;1306097;89;21610;-69
2022/08/01 07:03:51;;;;;;;19.62;8.43;;;;;;;17.37;84.37;98624.08;1305575;89;21087;-69
2022/08/01 07:05:52;;;;;;;10.20;7.30;;;;;;;17.44;84.29;98624.43;1304541;89;81151;-70
2022/08/01 07:07:54;;;;;;;14.00;7.42;;;;;;;17.52;84.27;98620.15;1308881;89;21034;-69
2022/08/01 07:09:55;;;;;;;8.50;7.60;;;;;;;17.60;84.15;98624.86;1304600;89;81302;-69
2022/08/01 07:11:56;;;;;;;9.85;6.87;;;;;;;17.65;84.19;98624.46;1306015;89;21097;-69
2022/08/01 07:13:58;;;;;;;9.38;7.37;;;;;;;17.73;84.09;98626.50;1306725;89;21071;-69
2022/08/01 07:15:59;;;;;;;7.87;6.25;;;;;;;17.79;84.10;98620.17;1303806;89;80847;-69
2022/08/01 07:18:03;;;;;;;6.72;6.12;;;;;;;17.87;84.01;98615.05;1307587;89;21086;-69
2022/08/01 07:20:04;;;;;;;7.55;6.60;;;;;;;17.96;83.85;98614.78;1326342;88;81133;-69
2022/08/01 07:22:05;;;;;;;9.50;6.75;;;;;;;18.04;83.80;98615.44;1328013;88;21047;-69
2022/08/01 07:24:08;;;;;;;6.47;5.90;;;;;;;18.10;83.74;98616.27;1327696;88;21682;-69
2022/08/01 07:26:09;;;;;;;9.88;5.97;;;;;;;18.18;83.59;98620.96;1325276;88;81148;-69
2022/08/01 07:28:10;;;;;;;6.10;5.50;;;;;;;18.26;83.55;98620.28;1327413;88;20993;-69
2022/08/01 07:30:12;;;;;;;5.92;5.37;;;;;;;18.32;83.39;98618.44;1326480;88;81539;-69
2022/08/01 07:32:13;;;;;;;6.00;5.00;;;;;;;18.39;83.38;98627.60;1328559;89;21036;-68
2022/08/01 07:34:14;;;;;;;4.53;4.12;;;;;;;18.47;83.12;98623.78;1328252;88;21063;-68
2022/08/01 07:36:17;;;;;;;7.90;4.20;;;;;;;18.53;82.94;98621.06;1326023;88;81655;-70
2022/08/01 07:38:18;;;;;;;6.50;4.75;;;;;;;18.60;82.70;98616.88;1334561;88;21373;-69
2022/08/01 07:40:19;;;;;;;5.12;4.10;;;;;;;18.70;82.67;98616.41;1323934;88;82100;-69
2022/08/01 07:42:20;;;;;;;7.53;4.25;;;;;;;18.80;82.72;98618.28;1327945;88;21534;-70
2022/08/01 07:44:21;;;;;;;3.92;3.60;;;;;;;18.87;82.40;98612.75;1329146;88;21032;-70
2022/08/01 07:46:23;;;;;;;8.30;4.25;;;;;;;18.93;82.33;98614.92;1332909;87;80882;-70
2022/08/01 07:48:24;;;;;;;4.05;3.27;;;;;;;19.02;82.23;98613.25;1336061;88;21106;-70
2022/08/01 07:50:25;;;;;;;5.85;3.72;;;;;;;19.08;81.92;98615.39;1334765;87;80733;-70
2022/08/01 07:52:26;;;;;;;10.43;4.05;;;;;;;19.16;81.67;98618.69;1335336;87;21063;-70
2022/08/01 07:54:28;;;;;;;5.90;3.47;;;;;;;19.22;81.59;98609.64;1336335;87;21062;-69
2022/08/01 07:56:29;;;;;;;3.35;2.70;;;;;;;19.31;81.44;98611.13;1334199;88;81690;-70
2022/08/01 07:58:30;;;;;;;3.87;2.80;;;;;;;19.36;80.86;98619.08;1335845;87;21043;-70
2022/08/01 08:00:31;;;;;;;3.40;2.70;;;;;;;19.44;80.52;98612.19;1333176;87;81597;-70
2022/08/01 08:02:32;;;;;;;16.37;2.85;;;;;;;19.46;80.58;98613.74;1335263;87;21094;-69
2022/08/01 08:04:33;;;;;;;4.15;3.10;;;;;;;19.54;80.37;98614.39;1336056;87;22237;-69
2022/08/01 08:06:34;;;;;;;6.25;2.90;;;;;;;19.57;80.21;98613.59;1333901;87;80771;-69
2022/08/01 08:08:35;;;;;;;7.78;2.42;;;;;;;19.60;79.99;98612.98;1335921;87;21022;-69
2022/08/01 08:10:36;;;;;;;3.20;2.92;;;;;;;19.66;79.76;98612.41;1333141;87;80858;-69
2022/08/01 08:12:37;;;;;;;3.83;2.62;;;;;;;19.72;79.60;98606.51;1334923;87;21112;-70
2022/08/01 08:14:38;;;;;;;4.90;2.58;;;;;;;19.76;79.76;98605.23;1334267;88;21103;-70
2022/08/01 08:16:39;;;;;;;8.55;2.87;;;;;;;19.80;79.86;98601.80;1333376;87;81449;-70
2022/08/01 08:18:41;;;;;;;4.05;2.70;;;;;;;19.85;79.71;98604.40;1335166;87;21087;-70
2022/08/01 08:20:42;;;;;;;4.47;3.27;;;;;;;19.89;79.47;98604.47;1333420;87;81905;-70
2022/08/01 08:22:43;;;;;;;2.83;2.58;;;;;;;19.99;79.42;98606.30;1335563;87;21050;-70
2022/08/01 08:24:44;;;;;;;3.10;2.80;;;;;;;20.07;79.43;98601.91;1332954;88;80797;-70
2022/08/01 08:26:45;;;;;;;23.12;3.20;;;;;;;20.13;79.06;98609.88;1335658;87;21027;-70
2022/08/01 08:28:46;;;;;;;4.70;3.10;;;;;;;20.16;78.95;98608.23;1334873;87;21071;-71
2022/08/01 08:30:47;;;;;;;3.37;2.58;;;;;;;20.19;79.05;98607.95;1333692;87;81113;-71
2022/08/01 08:32:48;;;;;;;5.67;2.50;;;;;;;20.23;78.66;98605.33;1336606;88;21095;-71
2022/08/01 08:34:49;;;;;;;8.33;2.25;;;;;;;20.31;78.72;98605.09;1333856;87;91305;-70
2022/08/01 08:36:55;;;;;;;5.28;2.50;;;;;;;20.41;78.53;98605.92;1341905;87;21158;-71
2022/08/01 08:38:55;;;;;;;2.58;2.37;;;;;;;20.51;78.66;98601.36;1335475;88;21070;-71
2022/08/01 08:40:57;;;;;;;2.87;2.60;;;;;;;20.63;78.68;98607.86;1333258;87;82350;-71
2022/08/01 08:43:00;;;;;;;9.28;2.55;;;;;;;20.67;78.85;98601.22;1334741;87;21023;-71
2022/08/01 08:45:01;;;;;;;6.62;2.27;;;;;;;20.88;78.63;98612.59;1333946;87;80907;-71
2022/08/01 08:47:06;;;;;;;4.70;2.70;;;;;;;21.01;78.74;98615.41;1334715;87;21070;-71
2022/08/01 08:49:08;;;;;;;10.28;2.72;;;;;;;21.17;78.61;98615.60;1335227;87;21063;-71
2022/08/01 08:51:11;;;;;;;6.45;2.35;;;;;;;21.29;77.90;98610.84;1332285;87;81000;-71
2022/08/01 08:53:14;;;;;;;4.70;2.55;;;;;;;21.37;77.60;98614.13;1334840;88;21066;-70
2022/08/01 08:55:17;;;;;;;7.80;2.60;;;;;;;21.44;77.59;98607.98;1332986;87;81680;-70
2022/08/01 08:57:20;;;;;;;11.63;2.92;;;;;;;21.52;77.56;98608.60;1336081;87;21113;-71
2022/08/01 08:59:23;;;;;;;4.78;2.50;;;;;;;21.57;77.48;98600.95;1336271;89;21047;-69
2022/08/01 09:01:24;;;;;;;7.72;2.30;;;;;;;21.71;77.50;98602.72;1333477;87;80789;-71
2022/08/01 09:03:25;;;;;;;7.33;2.37;;;;;;;21.84;77.35;98597.81;1335151;87;21015;-70
2022/08/01 09:05:27;;;;;;;7.62;2.20;;;;;;;21.99;76.92;98602.61;1332811;87;80950;-70
2022/08/01 09:07:28;;;;;;;4.10;2.50;;;;;;;22.08;77.05;98604.36;1334436;87;21055;-69
2022/08/01 09:09:29;;;;;;;4.03;2.33;;;;;;;22.17;76.40;98606.63;1335432;88;21062;-70
2022/08/01 09:11:30;;;;;;;7.53;2.50;;;;;;;22.19;76.55;98598.72;1334320;88;81614;-70
2022/08/01 09:13:31;;;;;;;8.18;2.80;;;;;;;22.26;76.81;98604.31;1335895;87;21043;-70
2022/08/01 09:15:43;;;;;;;9.60;2.45;;;;;;;22.32;76.71;98610.89;1333861;87;81738;-70
2022/08/01 09:17:44;;;;;;;12.18;2.40;;;;;;;22.43;76.86;98606.62;1328339;87;21919;-70
2022/08/01 09:19:52;;;;;;;2.58;1.70;;;;;;;22.58;76.75;98605.05;1333815;87;81251;-70
2022/08/01 09:22:01;;;;;;;2.27;2.10;;;;;;;22.66;75.95;98604.73;1334609;87;21603;-70
2022/08/01 09:24:05;;;;;;;8.08;2.35;;;;;;;22.68;75.95;98605.41;1336638;87;21202;-71
2022/08/01 09:26:06;;;;;;;11.05;2.10;;;;;;;22.76;75.71;98605.45;1333713;87;82070;-70
2022/08/01 09:28:07;;;;;;;2.30;2.10;;;;;;;22.84;75.52;98601.45;1335504;87;21003;-70
2022/08/01 09:30:18;;;;;;;4.25;1.85;;;;;;;22.92;75.23;98601.48;1334713;87;81540;-71
2022/08/01 09:32:20;;;;;;;9.45;2.05;;;;;;;23.09;75.32;98602.88;1335641;88;22289;-71
2022/08/01 09:34:27;;;;;;;3.05;2.08;;;;;;;23.31;75.21;98603.31;1335567;87;21646;-71